sensor_id;sensor_type;location;lat;lon;timestamp;temperature;humidity
75782;DHT22;64400;44.762;37.698;2022-11-15T00:02:52;5.77;91.82
75782;DHT22;64400;44.762;37.698;2022-11-15T00:06:03;5.70;91.82
75782;DHT22;64400;44.762;37.698;2022-11-15T00:09:10;5.68;93.07
75782;DHT22;64400;44.762;37.698;2022-11-15T00:12:17;5.74;92.89
75782;DHT22;64400;44.762;37.698;2022-11-15T00:15:25;5.80;92.12
75782;DHT22;64400;44.762;37.698;2022-11-15T00:18:32;5.86;92.06
75782;DHT22;64400;44.762;37.698;2022-11-15T00:21:39;5.94;91.43
75782;DHT22;64400;44.762;37.698;2022-11-15T00:24:46;6.00;91.20
75782;DHT22;64400;44.762;37.698;2022-11-15T00:27:57;6.02;91.08
75782;DHT22;64400;44.762;37.698;2022-11-15T00:31:07;5.92;91.34
75782;DHT22;64400;44.762;37.698;2022-11-15T00:34:15;5.93;91.07
75782;DHT22;64400;44.762;37.698;2022-11-15T00:37:21;5.97;91.11
75782;DHT22;64400;44.762;37.698;2022-11-15T00:40:30;5.91;91.33
75782;DHT22;64400;44.762;37.698;2022-11-15T00:43:39;5.89;91.18
75782;DHT22;64400;44.762;37.698;2022-11-15T00:46:47;5.85;91.24
75782;DHT22;64400;44.762;37.698;2022-11-15T00:49:55;5.93;90.75
75782;DHT22;64400;44.762;37.698;2022-11-15T00:53:02;5.98;90.54
75782;DHT22;64400;44.762;37.698;2022-11-15T00:56:10;5.98;90.50
75782;DHT22;64400;44.762;37.698;2022-11-15T00:59:17;6.07;90.57
75782;DHT22;64400;44.762;37.698;2022-11-15T01:02:24;6.14;90.63
75782;DHT22;64400;44.762;37.698;2022-11-15T01:05:32;6.27;90.07
75782;DHT22;64400;44.762;37.698;2022-11-15T01:08:40;6.34;89.76
75782;DHT22;64400;44.762;37.698;2022-11-15T01:11:39;6.36;89.38
75782;DHT22;64400;44.762;37.698;2022-11-15T01:14:37;6.34;89.38
75782;DHT22;64400;44.762;37.698;2022-11-15T01:17:46;6.24;89.33
75782;DHT22;64400;44.762;37.698;2022-11-15T01:20:53;6.16;89.48
75782;DHT22;64400;44.762;37.698;2022-11-15T01:24:02;6.12;89.76
75782;DHT22;64400;44.762;37.698;2022-11-15T01:27:09;6.14;89.92
75782;DHT22;64400;44.762;37.698;2022-11-15T01:30:17;6.20;89.70
75782;DHT22;64400;44.762;37.698;2022-11-15T01:33:24;6.19;89.75
75782;DHT22;64400;44.762;37.698;2022-11-15T01:36:32;6.22;89.86
75782;DHT22;64400;44.762;37.698;2022-11-15T01:39:28;6.22;89.70
75782;DHT22;64400;44.762;37.698;2022-11-15T01:42:38;6.23;89.38
75782;DHT22;64400;44.762;37.698;2022-11-15T01:45:51;6.13;89.82
75782;DHT22;64400;44.762;37.698;2022-11-15T01:49:14;6.02;89.63
75782;DHT22;64400;44.762;37.698;2022-11-15T01:52:12;5.94;90.30
75782;DHT22;64400;44.762;37.698;2022-11-15T01:55:23;5.77;91.29
75782;DHT22;64400;44.762;37.698;2022-11-15T01:58:32;5.79;91.16
75782;DHT22;64400;44.762;37.698;2022-11-15T02:01:40;5.77;91.29
75782;DHT22;64400;44.762;37.698;2022-11-15T02:04:48;5.68;91.66
75782;DHT22;64400;44.762;37.698;2022-11-15T02:07:55;5.61;92.33
75782;DHT22;64400;44.762;37.698;2022-11-15T02:11:07;5.65;91.90
75782;DHT22;64400;44.762;37.698;2022-11-15T02:14:16;5.53;92.25
75782;DHT22;64400;44.762;37.698;2022-11-15T02:21:25;5.46;93.34
75782;DHT22;64400;44.762;37.698;2022-11-15T02:31:39;5.35;93.91
75782;DHT22;64400;44.762;37.698;2022-11-15T02:41:42;5.41;93.53
75782;DHT22;64400;44.762;37.698;2022-11-15T02:44:45;5.40;93.88
75782;DHT22;64400;44.762;37.698;2022-11-15T02:47:56;5.41;93.46
75782;DHT22;64400;44.762;37.698;2022-11-15T02:50:58;5.43;93.49
75782;DHT22;64400;44.762;37.698;2022-11-15T02:53:58;5.47;92.96
75782;DHT22;64400;44.762;37.698;2022-11-15T02:57:14;5.43;93.08
75782;DHT22;64400;44.762;37.698;2022-11-15T03:00:23;5.42;92.61
75782;DHT22;64400;44.762;37.698;2022-11-15T03:03:28;5.38;93.63
75782;DHT22;64400;44.762;37.698;2022-11-15T03:06:55;5.28;93.91
75782;DHT22;64400;44.762;37.698;2022-11-15T03:13:26;5.25;93.84
75782;DHT22;64400;44.762;37.698;2022-11-15T03:19:59;5.26;93.57
75782;DHT22;64400;44.762;37.698;2022-11-15T03:23:09;5.27;93.34
75782;DHT22;64400;44.762;37.698;2022-11-15T03:26:19;5.26;93.59
75782;DHT22;64400;44.762;37.698;2022-11-15T03:29:17;5.28;93.50
75782;DHT22;64400;44.762;37.698;2022-11-15T03:32:33;5.26;93.17
75782;DHT22;64400;44.762;37.698;2022-11-15T03:35:44;5.27;93.24
75782;DHT22;64400;44.762;37.698;2022-11-15T03:38:55;5.31;92.98
75782;DHT22;64400;44.762;37.698;2022-11-15T03:42:20;5.28;93.05
75782;DHT22;64400;44.762;37.698;2022-11-15T03:45:59;5.27;93.24
75782;DHT22;64400;44.762;37.698;2022-11-15T03:49:19;5.27;93.12
75782;DHT22;64400;44.762;37.698;2022-11-15T03:52:32;5.26;92.61
75782;DHT22;64400;44.762;37.698;2022-11-15T03:55:22;5.22;92.91
75782;DHT22;64400;44.762;37.698;2022-11-15T03:58:30;5.16;92.98
75782;DHT22;64400;44.762;37.698;2022-11-15T04:01:37;5.10;93.19
75782;DHT22;64400;44.762;37.698;2022-11-15T04:04:44;5.05;93.33
75782;DHT22;64400;44.762;37.698;2022-11-15T04:07:52;5.06;93.49
75782;DHT22;64400;44.762;37.698;2022-11-15T04:10:59;5.00;93.76
75782;DHT22;64400;44.762;37.698;2022-11-15T04:14:06;5.07;93.15
75782;DHT22;64400;44.762;37.698;2022-11-15T04:17:13;5.09;92.93
75782;DHT22;64400;44.762;37.698;2022-11-15T04:20:24;5.07;92.25
75782;DHT22;64400;44.762;37.698;2022-11-15T04:23:50;5.08;92.18
75782;DHT22;64400;44.762;37.698;2022-11-15T04:27:16;5.10;91.76
75782;DHT22;64400;44.762;37.698;2022-11-15T04:30:24;5.07;92.08
75782;DHT22;64400;44.762;37.698;2022-11-15T04:33:31;5.05;92.02
75782;DHT22;64400;44.762;37.698;2022-11-15T04:36:38;5.09;91.95
75782;DHT22;64400;44.762;37.698;2022-11-15T04:40:04;5.28;90.99
75782;DHT22;64400;44.762;37.698;2022-11-15T04:43:12;5.57;90.33
75782;DHT22;64400;44.762;37.698;2022-11-15T04:46:21;5.81;89.47
75782;DHT22;64400;44.762;37.698;2022-11-15T04:49:28;6.05;88.35
75782;DHT22;64400;44.762;37.698;2022-11-15T04:52:36;6.29;87.25
75782;DHT22;64400;44.762;37.698;2022-11-15T04:55:46;6.53;85.49
75782;DHT22;64400;44.762;37.698;2022-11-15T04:58:54;6.73;85.32
75782;DHT22;64400;44.762;37.698;2022-11-15T05:02:02;7.11;84.11
75782;DHT22;64400;44.762;37.698;2022-11-15T05:05:10;7.53;82.58
75782;DHT22;64400;44.762;37.698;2022-11-15T05:08:17;7.84;80.98
75782;DHT22;64400;44.762;37.698;2022-11-15T05:11:25;8.21;80.16
75782;DHT22;64400;44.762;37.698;2022-11-15T05:14:35;8.52;78.28
75782;DHT22;64400;44.762;37.698;2022-11-15T05:17:42;8.74;77.49
75782;DHT22;64400;44.762;37.698;2022-11-15T05:20:49;9.03;76.53
75782;DHT22;64400;44.762;37.698;2022-11-15T05:23:57;9.33;75.77
75782;DHT22;64400;44.762;37.698;2022-11-15T05:27:06;9.50;74.50
75782;DHT22;64400;44.762;37.698;2022-11-15T05:29:56;9.79;73.73
75782;DHT22;64400;44.762;37.698;2022-11-15T05:33:03;10.07;72.43
75782;DHT22;64400;44.762;37.698;2022-11-15T05:35:59;10.26;72.61
75782;DHT22;64400;44.762;37.698;2022-11-15T05:39:07;10.21;71.90
75782;DHT22;64400;44.762;37.698;2022-11-15T05:42:16;10.66;71.70
75782;DHT22;64400;44.762;37.698;2022-11-15T05:45:24;10.96;70.62
75782;DHT22;64400;44.762;37.698;2022-11-15T05:48:33;11.23;68.75
75782;DHT22;64400;44.762;37.698;2022-11-15T05:51:42;11.37;66.51
75782;DHT22;64400;44.762;37.698;2022-11-15T05:54:53;11.74;65.39
75782;DHT22;64400;44.762;37.698;2022-11-15T05:58:03;12.01;64.97
75782;DHT22;64400;44.762;37.698;2022-11-15T06:01:10;12.17;64.07
75782;DHT22;64400;44.762;37.698;2022-11-15T06:04:18;12.69;62.47
75782;DHT22;64400;44.762;37.698;2022-11-15T06:07:25;13.08;61.17
75782;DHT22;64400;44.762;37.698;2022-11-15T06:10:32;13.44;58.67
75782;DHT22;64400;44.762;37.698;2022-11-15T06:13:40;13.68;57.98
75782;DHT22;64400;44.762;37.698;2022-11-15T06:16:47;14.24;57.45
75782;DHT22;64400;44.762;37.698;2022-11-15T06:19:55;14.49;54.88
75782;DHT22;64400;44.762;37.698;2022-11-15T06:23:03;13.61;58.44
75782;DHT22;64400;44.762;37.698;2022-11-15T06:26:11;13.76;56.00
75782;DHT22;64400;44.762;37.698;2022-11-15T06:29:19;14.22;55.65
75782;DHT22;64400;44.762;37.698;2022-11-15T06:32:12;14.79;53.44
75782;DHT22;64400;44.762;37.698;2022-11-15T06:35:21;14.85;51.81
75782;DHT22;64400;44.762;37.698;2022-11-15T06:38:28;15.19;51.27
75782;DHT22;64400;44.762;37.698;2022-11-15T06:41:36;15.38;50.54
75782;DHT22;64400;44.762;37.698;2022-11-15T06:44:43;14.04;51.66
75782;DHT22;64400;44.762;37.698;2022-11-15T06:47:51;13.98;55.16
75782;DHT22;64400;44.762;37.698;2022-11-15T06:51:01;14.30;52.49
75782;DHT22;64400;44.762;37.698;2022-11-15T06:54:08;14.69;51.63
75782;DHT22;64400;44.762;37.698;2022-11-15T06:56:56;14.96;50.33
75782;DHT22;64400;44.762;37.698;2022-11-15T07:00:05;15.72;49.89
75782;DHT22;64400;44.762;37.698;2022-11-15T07:03:13;16.13;46.61
75782;DHT22;64400;44.762;37.698;2022-11-15T07:06:05;16.39;47.03
75782;DHT22;64400;44.762;37.698;2022-11-15T07:09:13;16.57;45.64
75782;DHT22;64400;44.762;37.698;2022-11-15T07:12:03;16.32;46.34
75782;DHT22;64400;44.762;37.698;2022-11-15T07:15:11;15.84;46.52
75782;DHT22;64400;44.762;37.698;2022-11-15T07:18:18;15.86;48.58
75782;DHT22;64400;44.762;37.698;2022-11-15T07:21:26;15.74;48.98
75782;DHT22;64400;44.762;37.698;2022-11-15T07:24:37;15.86;46.72
75782;DHT22;64400;44.762;37.698;2022-11-15T07:27:59;16.01;48.06
75782;DHT22;64400;44.762;37.698;2022-11-15T07:31:10;16.72;46.65
75782;DHT22;64400;44.762;37.698;2022-11-15T07:34:08;16.92;44.68
75782;DHT22;64400;44.762;37.698;2022-11-15T07:37:58;16.90;43.74
75782;DHT22;64400;44.762;37.698;2022-11-15T07:41:06;17.44;44.85
75782;DHT22;64400;44.762;37.698;2022-11-15T07:44:14;17.45;43.59
75782;DHT22;64400;44.762;37.698;2022-11-15T07:47:21;17.31;44.54
75782;DHT22;64400;44.762;37.698;2022-11-15T07:50:27;16.75;46.36
75782;DHT22;64400;44.762;37.698;2022-11-15T07:53:36;16.88;45.70
75782;DHT22;64400;44.762;37.698;2022-11-15T07:56:44;17.06;44.42
75782;DHT22;64400;44.762;37.698;2022-11-15T07:59:51;16.82;44.93
75782;DHT22;64400;44.762;37.698;2022-11-15T08:03:09;16.95;45.21
75782;DHT22;64400;44.762;37.698;2022-11-15T08:06:17;17.06;43.14
75782;DHT22;64400;44.762;37.698;2022-11-15T08:09:23;16.88;42.60
75782;DHT22;64400;44.762;37.698;2022-11-15T08:12:32;16.43;45.66
75782;DHT22;64400;44.762;37.698;2022-11-15T08:15:39;16.50;45.70
75782;DHT22;64400;44.762;37.698;2022-11-15T08:18:46;16.86;43.44
75782;DHT22;64400;44.762;37.698;2022-11-15T08:21:54;16.94;44.04
75782;DHT22;64400;44.762;37.698;2022-11-15T08:25:01;17.44;44.12
75782;DHT22;64400;44.762;37.698;2022-11-15T08:28:10;17.09;42.48
75782;DHT22;64400;44.762;37.698;2022-11-15T08:31:18;17.14;41.19
75782;DHT22;64400;44.762;37.698;2022-11-15T08:34:25;17.55;40.25
75782;DHT22;64400;44.762;37.698;2022-11-15T08:37:32;17.64;42.00
75782;DHT22;64400;44.762;37.698;2022-11-15T08:40:40;17.78;39.71
75782;DHT22;64400;44.762;37.698;2022-11-15T08:43:32;17.89;39.77
75782;DHT22;64400;44.762;37.698;2022-11-15T08:46:39;18.39;39.19
75782;DHT22;64400;44.762;37.698;2022-11-15T08:49:46;18.49;36.90
75782;DHT22;64400;44.762;37.698;2022-11-15T08:52:34;18.61;39.99
75782;DHT22;64400;44.762;37.698;2022-11-15T08:55:42;18.32;40.76
75782;DHT22;64400;44.762;37.698;2022-11-15T08:58:50;17.87;40.50
75782;DHT22;64400;44.762;37.698;2022-11-15T09:01:57;18.06;40.25
75782;DHT22;64400;44.762;37.698;2022-11-15T09:05:05;18.54;40.49
75782;DHT22;64400;44.762;37.698;2022-11-15T09:08:13;18.37;40.89
75782;DHT22;64400;44.762;37.698;2022-11-15T09:11:20;18.14;40.40
75782;DHT22;64400;44.762;37.698;2022-11-15T09:14:29;17.75;41.93
75782;DHT22;64400;44.762;37.698;2022-11-15T09:17:36;17.38;43.24
75782;DHT22;64400;44.762;37.698;2022-11-15T09:20:43;17.38;43.46
75782;DHT22;64400;44.762;37.698;2022-11-15T09:23:51;17.37;43.06
75782;DHT22;64400;44.762;37.698;2022-11-15T09:26:59;17.73;41.58
75782;DHT22;64400;44.762;37.698;2022-11-15T09:30:08;17.82;40.61
75782;DHT22;64400;44.762;37.698;2022-11-15T09:33:16;17.78;41.23
75782;DHT22;64400;44.762;37.698;2022-11-15T09:36:23;18.37;40.80
75782;DHT22;64400;44.762;37.698;2022-11-15T09:39:31;18.23;39.28
75782;DHT22;64400;44.762;37.698;2022-11-15T09:49:29;19.57;37.50
75782;DHT22;64400;44.762;37.698;2022-11-15T09:52:25;20.06;35.86
75782;DHT22;64400;44.762;37.698;2022-11-15T09:54:54;20.70;34.50
75782;DHT22;64400;44.762;37.698;2022-11-15T09:57:57;20.63;33.46
75782;DHT22;64400;44.762;37.698;2022-11-15T10:00:50;21.06;34.91
75782;DHT22;64400;44.762;37.698;2022-11-15T10:03:41;20.15;38.17
75782;DHT22;64400;44.762;37.698;2022-11-15T10:06:32;19.69;37.55
75782;DHT22;64400;44.762;37.698;2022-11-15T10:09:29;19.73;38.17
75782;DHT22;64400;44.762;37.698;2022-11-15T10:12:20;20.14;38.04
75782;DHT22;64400;44.762;37.698;2022-11-15T10:15:16;20.01;38.12
75782;DHT22;64400;44.762;37.698;2022-11-15T10:18:29;20.98;36.40
75782;DHT22;64400;44.762;37.698;2022-11-15T10:21:15;20.48;38.24
75782;DHT22;64400;44.762;37.698;2022-11-15T10:23:47;20.64;37.26
75782;DHT22;64400;44.762;37.698;2022-11-15T10:26:17;20.10;36.37
75782;DHT22;64400;44.762;37.698;2022-11-15T10:29:06;20.89;37.30
75782;DHT22;64400;44.762;37.698;2022-11-15T10:31:40;21.60;33.48
75782;DHT22;64400;44.762;37.698;2022-11-15T10:34:35;22.41;32.83
75782;DHT22;64400;44.762;37.698;2022-11-15T10:37:06;23.29;32.16
75782;DHT22;64400;44.762;37.698;2022-11-15T10:40:17;23.73;30.72
75782;DHT22;64400;44.762;37.698;2022-11-15T10:42:48;23.79;30.18
75782;DHT22;64400;44.762;37.698;2022-11-15T10:45:28;22.84;31.90
75782;DHT22;64400;44.762;37.698;2022-11-15T10:50:44;23.58;32.37
75782;DHT22;64400;44.762;37.698;2022-11-15T10:53:29;23.26;31.64
75782;DHT22;64400;44.762;37.698;2022-11-15T10:56:21;23.07;32.67
75782;DHT22;64400;44.762;37.698;2022-11-15T10:58:56;22.60;32.02
75782;DHT22;64400;44.762;37.698;2022-11-15T11:01:28;23.16;31.29
75782;DHT22;64400;44.762;37.698;2022-11-15T11:04:08;22.85;32.31
75782;DHT22;64400;44.762;37.698;2022-11-15T11:06:59;22.43;33.55
75782;DHT22;64400;44.762;37.698;2022-11-15T11:10:00;22.55;33.48
75782;DHT22;64400;44.762;37.698;2022-11-15T11:12:49;22.19;33.07
75782;DHT22;64400;44.762;37.698;2022-11-15T11:15:40;22.44;33.08
75782;DHT22;64400;44.762;37.698;2022-11-15T11:18:51;22.48;33.62
75782;DHT22;64400;44.762;37.698;2022-11-15T11:27:14;21.96;34.95
75782;DHT22;64400;44.762;37.698;2022-11-15T11:37:49;23.38;32.75
75782;DHT22;64400;44.762;37.698;2022-11-15T11:46:18;22.48;34.58
75782;DHT22;64400;44.762;37.698;2022-11-15T11:48:59;22.39;34.47
75782;DHT22;64400;44.762;37.698;2022-11-15T11:58:42;21.79;36.21
75782;DHT22;64400;44.762;37.698;2022-11-15T12:01:31;22.03;35.50
75782;DHT22;64400;44.762;37.698;2022-11-15T12:04:30;22.11;35.94
75782;DHT22;64400;44.762;37.698;2022-11-15T12:09:43;22.58;34.40
75782;DHT22;64400;44.762;37.698;2022-11-15T12:15:50;22.16;35.21
75782;DHT22;64400;44.762;37.698;2022-11-15T12:18:22;22.20;35.62
75782;DHT22;64400;44.762;37.698;2022-11-15T12:21:22;22.50;34.13
75782;DHT22;64400;44.762;37.698;2022-11-15T12:24:02;22.93;35.01
75782;DHT22;64400;44.762;37.698;2022-11-15T12:30:49;23.49;34.90
75782;DHT22;64400;44.762;37.698;2022-11-15T12:33:46;23.69;34.61
75782;DHT22;64400;44.762;37.698;2022-11-15T12:36:39;23.88;33.79
75782;DHT22;64400;44.762;37.698;2022-11-15T12:40:21;23.88;33.83
75782;DHT22;64400;44.762;37.698;2022-11-15T12:43:02;24.02;33.97
75782;DHT22;64400;44.762;37.698;2022-11-15T12:45:47;24.17;33.30
75782;DHT22;64400;44.762;37.698;2022-11-15T13:13:08;17.90;47.25
75782;DHT22;64400;44.762;37.698;2022-11-15T13:16:01;17.04;49.21
75782;DHT22;64400;44.762;37.698;2022-11-15T13:21:23;15.61;53.75
75782;DHT22;64400;44.762;37.698;2022-11-15T13:24:26;14.89;55.54
75782;DHT22;64400;44.762;37.698;2022-11-15T13:27:15;14.73;56.36
75782;DHT22;64400;44.762;37.698;2022-11-15T13:35:55;13.52;61.61
75782;DHT22;64400;44.762;37.698;2022-11-15T13:40:35;13.21;62.67
75782;DHT22;64400;44.762;37.698;2022-11-15T13:45:11;12.12;67.22
75782;DHT22;64400;44.762;37.698;2022-11-15T13:50:21;11.62;69.03
75782;DHT22;64400;44.762;37.698;2022-11-15T14:49:59;9.20;75.97
75782;DHT22;64400;44.762;37.698;2022-11-15T14:52:48;9.09;76.02
75782;DHT22;64400;44.762;37.698;2022-11-15T14:55:27;9.04;75.67
75782;DHT22;64400;44.762;37.698;2022-11-15T14:58:00;9.00;75.79
75782;DHT22;64400;44.762;37.698;2022-11-15T15:00:51;8.93;75.44
75782;DHT22;64400;44.762;37.698;2022-11-15T15:03:39;8.88;75.70
75782;DHT22;64400;44.762;37.698;2022-11-15T15:06:28;8.81;75.65
75782;DHT22;64400;44.762;37.698;2022-11-15T15:08:59;8.74;75.72
75782;DHT22;64400;44.762;37.698;2022-11-15T15:11:48;8.65;76.08
75782;DHT22;64400;44.762;37.698;2022-11-15T15:14:20;8.60;76.08
75782;DHT22;64400;44.762;37.698;2022-11-15T15:16:51;8.55;75.92
75782;DHT22;64400;44.762;37.698;2022-11-15T15:19:39;8.49;76.07
75782;DHT22;64400;44.762;37.698;2022-11-15T15:22:30;8.46;76.26
75782;DHT22;64400;44.762;37.698;2022-11-15T15:25:26;8.31;76.58
75782;DHT22;64400;44.762;37.698;2022-11-15T15:28:16;8.28;76.57
75782;DHT22;64400;44.762;37.698;2022-11-15T15:31:01;8.24;76.60
75782;DHT22;64400;44.762;37.698;2022-11-15T15:33:51;8.14;76.95
75782;DHT22;64400;44.762;37.698;2022-11-15T15:36:35;8.09;76.98
75782;DHT22;64400;44.762;37.698;2022-11-15T15:39:18;8.04;76.72
75782;DHT22;64400;44.762;37.698;2022-11-15T15:41:52;8.01;77.14
75782;DHT22;64400;44.762;37.698;2022-11-15T15:44:41;7.96;77.38
75782;DHT22;64400;44.762;37.698;2022-11-15T15:47:23;7.87;77.44
75782;DHT22;64400;44.762;37.698;2022-11-15T15:50:29;7.84;77.57
75782;DHT22;64400;44.762;37.698;2022-11-15T15:53:19;7.82;77.69
75782;DHT22;64400;44.762;37.698;2022-11-15T15:56:08;7.73;77.78
75782;DHT22;64400;44.762;37.698;2022-11-15T15:58:49;7.73;77.79
75782;DHT22;64400;44.762;37.698;2022-11-15T16:01:25;7.69;77.87
75782;DHT22;64400;44.762;37.698;2022-11-15T16:04:14;7.65;77.93
75782;DHT22;64400;44.762;37.698;2022-11-15T16:07:02;7.65;77.94
75782;DHT22;64400;44.762;37.698;2022-11-15T16:09:53;7.63;77.85
75782;DHT22;64400;44.762;37.698;2022-11-15T16:12:49;7.59;77.60
75782;DHT22;64400;44.762;37.698;2022-11-15T16:15:38;7.55;78.00
75782;DHT22;64400;44.762;37.698;2022-11-15T16:18:15;7.53;78.07
75782;DHT22;64400;44.762;37.698;2022-11-15T16:21:04;7.46;78.33
75782;DHT22;64400;44.762;37.698;2022-11-15T16:23:52;7.42;78.39
75782;DHT22;64400;44.762;37.698;2022-11-15T16:26:27;7.39;78.55
75782;DHT22;64400;44.762;37.698;2022-11-15T16:28:57;7.38;78.65
75782;DHT22;64400;44.762;37.698;2022-11-15T16:31:31;7.34;78.37
75782;DHT22;64400;44.762;37.698;2022-11-15T16:34:19;7.32;78.83
75782;DHT22;64400;44.762;37.698;2022-11-15T16:37:24;7.30;78.60
75782;DHT22;64400;44.762;37.698;2022-11-15T16:39:53;7.28;78.79
75782;DHT22;64400;44.762;37.698;2022-11-15T16:42:42;7.24;79.15
75782;DHT22;64400;44.762;37.698;2022-11-15T16:45:12;7.20;79.12
75782;DHT22;64400;44.762;37.698;2022-11-15T16:47:43;7.14;79.47
75782;DHT22;64400;44.762;37.698;2022-11-15T16:50:43;7.12;79.37
75782;DHT22;64400;44.762;37.698;2022-11-15T16:53:33;7.11;79.30
75782;DHT22;64400;44.762;37.698;2022-11-15T16:56:28;7.09;79.37
75782;DHT22;64400;44.762;37.698;2022-11-15T16:59:14;7.04;79.56
75782;DHT22;64400;44.762;37.698;2022-11-15T17:02:09;7.05;79.40
75782;DHT22;64400;44.762;37.698;2022-11-15T17:04:59;7.05;79.59
75782;DHT22;64400;44.762;37.698;2022-11-15T17:07:49;7.04;79.69
75782;DHT22;64400;44.762;37.698;2022-11-15T17:10:39;7.02;79.62
75782;DHT22;64400;44.762;37.698;2022-11-15T17:13:31;7.02;79.55
75782;DHT22;64400;44.762;37.698;2022-11-15T17:16:21;6.99;79.02
75782;DHT22;64400;44.762;37.698;2022-11-15T17:19:12;7.03;79.11
75782;DHT22;64400;44.762;37.698;2022-11-15T17:22:02;7.02;78.77
75782;DHT22;64400;44.762;37.698;2022-11-15T17:24:51;7.01;78.16
75782;DHT22;64400;44.762;37.698;2022-11-15T17:27:40;7.00;77.41
75782;DHT22;64400;44.762;37.698;2022-11-15T17:30:29;6.93;78.89
75782;DHT22;64400;44.762;37.698;2022-11-15T17:33:02;6.85;79.01
75782;DHT22;64400;44.762;37.698;2022-11-15T17:35:56;6.74;79.08
75782;DHT22;64400;44.762;37.698;2022-11-15T17:38:46;6.65;80.81
75782;DHT22;64400;44.762;37.698;2022-11-15T17:41:43;6.54;80.40
75782;DHT22;64400;44.762;37.698;2022-11-15T17:44:32;6.44;81.15
75782;DHT22;64400;44.762;37.698;2022-11-15T17:47:21;6.37;81.41
75782;DHT22;64400;44.762;37.698;2022-11-15T17:49:56;6.20;82.40
75782;DHT22;64400;44.762;37.698;2022-11-15T17:52:44;6.05;83.59
75782;DHT22;64400;44.762;37.698;2022-11-15T17:55:33;6.02;83.26
75782;DHT22;64400;44.762;37.698;2022-11-15T17:58:22;5.96;83.59
75782;DHT22;64400;44.762;37.698;2022-11-15T18:01:09;5.94;83.04
75782;DHT22;64400;44.762;37.698;2022-11-15T18:04:25;5.92;82.72
75782;DHT22;64400;44.762;37.698;2022-11-15T18:07:08;5.92;83.72
75782;DHT22;64400;44.762;37.698;2022-11-15T18:09:52;5.92;82.04
75782;DHT22;64400;44.762;37.698;2022-11-15T18:12:42;5.92;82.83
75782;DHT22;64400;44.762;37.698;2022-11-15T18:15:24;5.87;83.08
75782;DHT22;64400;44.762;37.698;2022-11-15T18:18:08;5.81;83.34
75782;DHT22;64400;44.762;37.698;2022-11-15T18:20:58;5.72;83.69
75782;DHT22;64400;44.762;37.698;2022-11-15T18:23:42;5.63;83.81
75782;DHT22;64400;44.762;37.698;2022-11-15T18:26:25;5.57;84.50
75782;DHT22;64400;44.762;37.698;2022-11-15T18:29:07;5.46;86.26
75782;DHT22;64400;44.762;37.698;2022-11-15T18:31:49;5.45;83.55
75782;DHT22;64400;44.762;37.698;2022-11-15T18:34:35;5.45;82.87
75782;DHT22;64400;44.762;37.698;2022-11-15T18:37:16;5.42;83.53
75782;DHT22;64400;44.762;37.698;2022-11-15T18:40:01;5.39;84.30
75782;DHT22;64400;44.762;37.698;2022-11-15T18:42:42;5.30;84.99
75782;DHT22;64400;44.762;37.698;2022-11-15T18:45:29;5.23;85.10
75782;DHT22;64400;44.762;37.698;2022-11-15T18:48:11;5.18;84.73
75782;DHT22;64400;44.762;37.698;2022-11-15T18:51:00;5.11;86.39
75782;DHT22;64400;44.762;37.698;2022-11-15T18:53:43;5.09;85.79
75782;DHT22;64400;44.762;37.698;2022-11-15T18:56:26;5.07;85.66
75782;DHT22;64400;44.762;37.698;2022-11-15T18:59:08;5.02;86.12
75782;DHT22;64400;44.762;37.698;2022-11-15T19:02:00;5.00;86.43
75782;DHT22;64400;44.762;37.698;2022-11-15T19:04:26;4.94;87.09
75782;DHT22;64400;44.762;37.698;2022-11-15T19:07:08;4.89;87.73
75782;DHT22;64400;44.762;37.698;2022-11-15T19:09:50;4.84;88.15
75782;DHT22;64400;44.762;37.698;2022-11-15T19:12:31;4.79;88.67
75782;DHT22;64400;44.762;37.698;2022-11-15T19:15:13;4.79;88.74
75782;DHT22;64400;44.762;37.698;2022-11-15T19:17:54;4.76;88.96
75782;DHT22;64400;44.762;37.698;2022-11-15T19:20:36;4.77;88.50
75782;DHT22;64400;44.762;37.698;2022-11-15T19:23:21;4.76;88.85
75782;DHT22;64400;44.762;37.698;2022-11-15T19:26:05;4.76;88.75
75782;DHT22;64400;44.762;37.698;2022-11-15T19:28:55;4.76;89.03
75782;DHT22;64400;44.762;37.698;2022-11-15T19:31:39;4.81;89.18
75782;DHT22;64400;44.762;37.698;2022-11-15T19:34:23;4.84;89.26
75782;DHT22;64400;44.762;37.698;2022-11-15T19:37:05;4.89;88.75
75782;DHT22;64400;44.762;37.698;2022-11-15T19:39:47;4.94;86.27
75782;DHT22;64400;44.762;37.698;2022-11-15T19:42:29;5.01;88.37
75782;DHT22;64400;44.762;37.698;2022-11-15T19:45:11;5.01;87.44
75782;DHT22;64400;44.762;37.698;2022-11-15T19:47:53;5.00;87.28
75782;DHT22;64400;44.762;37.698;2022-11-15T19:50:36;4.94;87.83
75782;DHT22;64400;44.762;37.698;2022-11-15T19:53:18;4.87;88.26
75782;DHT22;64400;44.762;37.698;2022-11-15T19:56:03;4.82;88.35
75782;DHT22;64400;44.762;37.698;2022-11-15T19:58:45;4.79;88.25
75782;DHT22;64400;44.762;37.698;2022-11-15T20:01:33;4.78;88.35
75782;DHT22;64400;44.762;37.698;2022-11-15T20:04:16;4.76;88.73
75782;DHT22;64400;44.762;37.698;2022-11-15T20:07:05;4.72;89.46
75782;DHT22;64400;44.762;37.698;2022-11-15T20:09:53;4.72;89.10
75782;DHT22;64400;44.762;37.698;2022-11-15T20:12:35;4.72;88.99
75782;DHT22;64400;44.762;37.698;2022-11-15T20:15:17;4.73;89.30
75782;DHT22;64400;44.762;37.698;2022-11-15T20:17:59;4.74;89.10
75782;DHT22;64400;44.762;37.698;2022-11-15T20:20:41;4.76;89.22
75782;DHT22;64400;44.762;37.698;2022-11-15T20:23:19;4.75;89.95
75782;DHT22;64400;44.762;37.698;2022-11-15T20:25:51;4.78;88.69
75782;DHT22;64400;44.762;37.698;2022-11-15T20:28:40;4.80;89.09
75782;DHT22;64400;44.762;37.698;2022-11-15T20:31:10;4.79;89.56
75782;DHT22;64400;44.762;37.698;2022-11-15T20:33:36;4.75;90.56
75782;DHT22;64400;44.762;37.698;2022-11-15T20:36:04;4.75;90.28
75782;DHT22;64400;44.762;37.698;2022-11-15T20:38:31;4.76;90.34
75782;DHT22;64400;44.762;37.698;2022-11-15T20:40:58;4.76;89.51
75782;DHT22;64400;44.762;37.698;2022-11-15T20:43:25;4.76;90.17
75782;DHT22;64400;44.762;37.698;2022-11-15T20:45:51;4.76;90.23
75782;DHT22;64400;44.762;37.698;2022-11-15T20:48:21;4.84;89.83
75782;DHT22;64400;44.762;37.698;2022-11-15T20:51:18;4.93;90.44
75782;DHT22;64400;44.762;37.698;2022-11-15T20:53:48;5.02;89.41
75782;DHT22;64400;44.762;37.698;2022-11-15T20:56:29;5.12;88.80
75782;DHT22;64400;44.762;37.698;2022-11-15T20:59:12;5.15;89.60
75782;DHT22;64400;44.762;37.698;2022-11-15T21:01:46;5.16;88.89
75782;DHT22;64400;44.762;37.698;2022-11-15T21:04:35;5.17;88.09
75782;DHT22;64400;44.762;37.698;2022-11-15T21:07:24;5.19;88.02
75782;DHT22;64400;44.762;37.698;2022-11-15T21:10:05;5.19;87.80
75782;DHT22;64400;44.762;37.698;2022-11-15T21:12:50;5.22;87.28